sensor_id;sensor_type;location;lat;lon;timestamp;P1;durP1;ratioP1;P2;durP2;ratioP2
20669;SDS011;10494;50.868;4.180;2024-03-06T00:01:41;9.60;;;6.03;;
20669;SDS011;10494;50.868;4.180;2024-03-06T00:04:06;9.90;;;6.03;;
20669;SDS011;10494;50.868;4.180;2024-03-06T00:06:32;10.35;;;5.63;;
20669;SDS011;10494;50.868;4.180;2024-03-06T00:08:58;9.75;;;5.70;;
20669;SDS011;10494;50.868;4.180;2024-03-06T00:11:24;11.45;;;5.32;;
20669;SDS011;10494;50.868;4.180;2024-03-06T00:13:50;11.13;;;5.77;;
20669;SDS011;10494;50.868;4.180;2024-03-06T00:16:16;9.80;;;5.63;;
20669;SDS011;10494;50.868;4.180;2024-03-06T00:18:41;8.33;;;5.37;;
20669;SDS011;10494;50.868;4.180;2024-03-06T00:21:07;9.52;;;5.50;;
20669;SDS011;10494;50.868;4.180;2024-03-06T00:23:34;10.93;;;5.43;;
20669;SDS011;10494;50.868;4.180;2024-03-06T00:26:00;8.98;;;4.72;;
20669;SDS011;10494;50.868;4.180;2024-03-06T00:28:27;10.03;;;5.57;;
20669;SDS011;10494;50.868;4.180;2024-03-06T00:30:53;8.33;;;5.30;;
20669;SDS011;10494;50.868;4.180;2024-03-06T00:33:18;8.23;;;5.63;;
20669;SDS011;10494;50.868;4.180;2024-03-06T00:35:44;10.27;;;5.70;;
20669;SDS011;10494;50.868;4.180;2024-03-06T00:38:09;10.77;;;6.00;;
20669;SDS011;10494;50.868;4.180;2024-03-06T00:40:35;11.02;;;6.40;;
20669;SDS011;10494;50.868;4.180;2024-03-06T00:43:00;12.13;;;6.13;;
20669;SDS011;10494;50.868;4.180;2024-03-06T00:45:26;11.88;;;6.55;;
20669;SDS011;10494;50.868;4.180;2024-03-06T00:47:52;11.07;;;6.07;;
20669;SDS011;10494;50.868;4.180;2024-03-06T00:50:17;9.07;;;6.13;;
20669;SDS011;10494;50.868;4.180;2024-03-06T00:52:46;8.67;;;5.93;;
20669;SDS011;10494;50.868;4.180;2024-03-06T00:55:11;8.63;;;5.47;;
20669;SDS011;10494;50.868;4.180;2024-03-06T00:57:37;10.80;;;5.97;;
20669;SDS011;10494;50.868;4.180;2024-03-06T01:00:03;10.33;;;5.90;;
20669;SDS011;10494;50.868;4.180;2024-03-06T01:02:36;7.13;;;4.90;;
20669;SDS011;10494;50.868;4.180;2024-03-06T01:05:05;8.63;;;5.13;;
20669;SDS011;10494;50.868;4.180;2024-03-06T01:07:34;7.32;;;4.80;;
20669;SDS011;10494;50.868;4.180;2024-03-06T01:10:03;9.37;;;5.60;;
20669;SDS011;10494;50.868;4.180;2024-03-06T01:12:31;7.77;;;5.30;;
20669;SDS011;10494;50.868;4.180;2024-03-06T01:14:57;8.17;;;5.07;;
20669;SDS011;10494;50.868;4.180;2024-03-06T01:17:23;9.47;;;5.03;;
20669;SDS011;10494;50.868;4.180;2024-03-06T01:19:48;8.57;;;5.73;;
20669;SDS011;10494;50.868;4.180;2024-03-06T01:22:14;10.03;;;6.03;;
20669;SDS011;10494;50.868;4.180;2024-03-06T01:24:40;9.50;;;5.50;;
20669;SDS011;10494;50.868;4.180;2024-03-06T01:27:06;9.53;;;6.30;;
20669;SDS011;10494;50.868;4.180;2024-03-06T01:29:31;10.87;;;6.63;;
20669;SDS011;10494;50.868;4.180;2024-03-06T01:31:57;10.53;;;6.73;;
20669;SDS011;10494;50.868;4.180;2024-03-06T01:34:23;10.30;;;6.47;;
20669;SDS011;10494;50.868;4.180;2024-03-06T01:36:50;9.60;;;5.97;;
20669;SDS011;10494;50.868;4.180;2024-03-06T01:39:16;11.30;;;6.63;;
20669;SDS011;10494;50.868;4.180;2024-03-06T01:41:45;8.90;;;5.73;;
20669;SDS011;10494;50.868;4.180;2024-03-06T01:44:11;7.73;;;5.33;;
20669;SDS011;10494;50.868;4.180;2024-03-06T01:46:37;11.70;;;5.50;;
20669;SDS011;10494;50.868;4.180;2024-03-06T01:49:03;10.27;;;5.27;;
20669;SDS011;10494;50.868;4.180;2024-03-06T01:51:29;7.87;;;5.43;;
20669;SDS011;10494;50.868;4.180;2024-03-06T01:53:56;11.93;;;5.63;;
20669;SDS011;10494;50.868;4.180;2024-03-06T01:56:22;8.17;;;5.80;;
20669;SDS011;10494;50.868;4.180;2024-03-06T01:58:47;8.00;;;5.33;;
20669;SDS011;10494;50.868;4.180;2024-03-06T02:01:14;10.63;;;5.70;;
20669;SDS011;10494;50.868;4.180;2024-03-06T02:03:41;11.33;;;6.37;;
20669;SDS011;10494;50.868;4.180;2024-03-06T02:06:07;9.83;;;5.90;;
20669;SDS011;10494;50.868;4.180;2024-03-06T02:08:36;10.57;;;5.97;;
20669;SDS011;10494;50.868;4.180;2024-03-06T02:11:02;10.73;;;6.10;;
20669;SDS011;10494;50.868;4.180;2024-03-06T02:13:27;14.23;;;6.17;;
20669;SDS011;10494;50.868;4.180;2024-03-06T02:15:53;10.93;;;6.00;;
20669;SDS011;10494;50.868;4.180;2024-03-06T02:18:19;9.07;;;5.50;;
20669;SDS011;10494;50.868;4.180;2024-03-06T02:20:44;9.47;;;6.10;;
20669;SDS011;10494;50.868;4.180;2024-03-06T02:23:15;10.47;;;5.83;;
20669;SDS011;10494;50.868;4.180;2024-03-06T02:25:42;10.10;;;5.93;;
20669;SDS011;10494;50.868;4.180;2024-03-06T02:28:08;8.87;;;5.87;;
20669;SDS011;10494;50.868;4.180;2024-03-06T02:30:34;11.30;;;6.30;;
20669;SDS011;10494;50.868;4.180;2024-03-06T02:33:02;9.87;;;6.70;;
20669;SDS011;10494;50.868;4.180;2024-03-06T02:35:29;8.37;;;5.70;;
20669;SDS011;10494;50.868;4.180;2024-03-06T02:37:55;9.37;;;6.10;;
20669;SDS011;10494;50.868;4.180;2024-03-06T02:40:22;13.70;;;6.50;;
20669;SDS011;10494;50.868;4.180;2024-03-06T02:42:47;9.30;;;6.00;;
20669;SDS011;10494;50.868;4.180;2024-03-06T02:45:13;9.77;;;6.10;;
20669;SDS011;10494;50.868;4.180;2024-03-06T02:47:39;8.67;;;5.77;;
20669;SDS011;10494;50.868;4.180;2024-03-06T02:50:04;9.63;;;5.87;;
20669;SDS011;10494;50.868;4.180;2024-03-06T02:52:30;12.63;;;6.73;;
20669;SDS011;10494;50.868;4.180;2024-03-06T02:54:56;9.40;;;6.40;;
20669;SDS011;10494;50.868;4.180;2024-03-06T02:57:22;11.50;;;6.77;;
20669;SDS011;10494;50.868;4.180;2024-03-06T02:59:48;11.73;;;6.50;;
20669;SDS011;10494;50.868;4.180;2024-03-06T03:02:14;12.27;;;7.27;;
20669;SDS011;10494;50.868;4.180;2024-03-06T03:04:39;12.77;;;6.83;;
20669;SDS011;10494;50.868;4.180;2024-03-06T03:07:05;11.90;;;7.30;;
20669;SDS011;10494;50.868;4.180;2024-03-06T03:09:30;11.77;;;7.37;;
20669;SDS011;10494;50.868;4.180;2024-03-06T03:11:56;11.50;;;6.77;;
20669;SDS011;10494;50.868;4.180;2024-03-06T03:14:22;11.57;;;7.10;;
20669;SDS011;10494;50.868;4.180;2024-03-06T03:16:48;11.23;;;7.00;;
20669;SDS011;10494;50.868;4.180;2024-03-06T03:19:13;10.30;;;6.67;;
20669;SDS011;10494;50.868;4.180;2024-03-06T03:21:42;12.87;;;6.90;;
20669;SDS011;10494;50.868;4.180;2024-03-06T03:24:09;9.93;;;6.33;;
20669;SDS011;10494;50.868;4.180;2024-03-06T03:26:35;12.70;;;6.73;;
20669;SDS011;10494;50.868;4.180;2024-03-06T03:29:02;9.67;;;5.87;;
20669;SDS011;10494;50.868;4.180;2024-03-06T03:31:28;10.73;;;6.37;;
20669;SDS011;10494;50.868;4.180;2024-03-06T03:33:53;12.77;;;5.93;;
20669;SDS011;10494;50.868;4.180;2024-03-06T03:36:19;10.33;;;6.03;;
20669;SDS011;10494;50.868;4.180;2024-03-06T03:38:45;10.37;;;6.37;;
20669;SDS011;10494;50.868;4.180;2024-03-06T03:41:11;8.83;;;5.67;;
20669;SDS011;10494;50.868;4.180;2024-03-06T03:43:38;9.40;;;5.87;;
20669;SDS011;10494;50.868;4.180;2024-03-06T03:46:04;8.17;;;5.30;;
20669;SDS011;10494;50.868;4.180;2024-03-06T03:48:31;11.83;;;7.13;;
20669;SDS011;10494;50.868;4.180;2024-03-06T03:50:57;12.03;;;6.10;;
20669;SDS011;10494;50.868;4.180;2024-03-06T03:53:22;11.00;;;6.87;;
20669;SDS011;10494;50.868;4.180;2024-03-06T03:55:48;9.57;;;6.13;;
20669;SDS011;10494;50.868;4.180;2024-03-06T03:58:13;11.10;;;6.77;;
20669;SDS011;10494;50.868;4.180;2024-03-06T04:00:39;9.87;;;6.37;;
20669;SDS011;10494;50.868;4.180;2024-03-06T04:03:05;9.33;;;5.80;;
20669;SDS011;10494;50.868;4.180;2024-03-06T04:05:30;10.70;;;5.67;;
20669;SDS011;10494;50.868;4.180;2024-03-06T04:07:56;10.70;;;6.57;;
20669;SDS011;10494;50.868;4.180;2024-03-06T04:10:22;10.13;;;5.60;;
20669;SDS011;10494;50.868;4.180;2024-03-06T04:12:47;9.60;;;5.67;;
20669;SDS011;10494;50.868;4.180;2024-03-06T04:15:13;10.50;;;6.50;;
20669;SDS011;10494;50.868;4.180;2024-03-06T04:17:40;11.27;;;6.63;;
20669;SDS011;10494;50.868;4.180;2024-03-06T04:20:06;11.00;;;5.77;;
20669;SDS011;10494;50.868;4.180;2024-03-06T04:22:32;14.50;;;7.03;;
20669;SDS011;10494;50.868;4.180;2024-03-06T04:24:58;11.80;;;6.97;;
20669;SDS011;10494;50.868;4.180;2024-03-06T04:27:24;11.47;;;6.77;;
20669;SDS011;10494;50.868;4.180;2024-03-06T04:29:50;14.70;;;7.83;;
20669;SDS011;10494;50.868;4.180;2024-03-06T04:32:17;12.37;;;7.47;;
20669;SDS011;10494;50.868;4.180;2024-03-06T04:34:43;11.30;;;6.83;;
20669;SDS011;10494;50.868;4.180;2024-03-06T04:37:08;14.50;;;6.97;;
20669;SDS011;10494;50.868;4.180;2024-03-06T04:39:34;14.13;;;7.17;;
20669;SDS011;10494;50.868;4.180;2024-03-06T04:42:00;11.70;;;7.23;;
20669;SDS011;10494;50.868;4.180;2024-03-06T04:44:25;13.17;;;8.00;;
20669;SDS011;10494;50.868;4.180;2024-03-06T04:46:51;11.93;;;6.93;;
20669;SDS011;10494;50.868;4.180;2024-03-06T04:49:16;13.67;;;7.90;;
20669;SDS011;10494;50.868;4.180;2024-03-06T04:51:42;12.33;;;7.80;;
20669;SDS011;10494;50.868;4.180;2024-03-06T04:54:08;12.07;;;7.53;;
20669;SDS011;10494;50.868;4.180;2024-03-06T04:56:33;15.07;;;7.53;;
20669;SDS011;10494;50.868;4.180;2024-03-06T04:58:59;14.30;;;7.20;;
20669;SDS011;10494;50.868;4.180;2024-03-06T05:01:28;17.67;;;7.43;;
20669;SDS011;10494;50.868;4.180;2024-03-06T05:03:54;17.40;;;8.10;;
20669;SDS011;10494;50.868;4.180;2024-03-06T05:06:20;16.13;;;7.83;;
20669;SDS011;10494;50.868;4.180;2024-03-06T05:08:47;14.40;;;7.63;;
20669;SDS011;10494;50.868;4.180;2024-03-06T05:11:12;13.87;;;7.87;;
20669;SDS011;10494;50.868;4.180;2024-03-06T05:13:38;11.13;;;7.27;;
20669;SDS011;10494;50.868;4.180;2024-03-06T05:16:04;14.10;;;7.47;;
20669;SDS011;10494;50.868;4.180;2024-03-06T05:18:30;11.83;;;6.80;;
20669;SDS011;10494;50.868;4.180;2024-03-06T05:20:55;14.37;;;7.90;;
20669;SDS011;10494;50.868;4.180;2024-03-06T05:23:21;12.57;;;7.30;;
20669;SDS011;10494;50.868;4.180;2024-03-06T05:25:48;11.27;;;6.87;;
20669;SDS011;10494;50.868;4.180;2024-03-06T05:28:13;11.83;;;7.17;;
20669;SDS011;10494;50.868;4.180;2024-03-06T05:30:39;11.53;;;6.60;;
20669;SDS011;10494;50.868;4.180;2024-03-06T05:33:04;14.33;;;7.83;;
20669;SDS011;10494;50.868;4.180;2024-03-06T05:35:30;9.63;;;6.07;;
20669;SDS011;10494;50.868;4.180;2024-03-06T05:37:56;10.93;;;6.40;;
20669;SDS011;10494;50.868;4.180;2024-03-06T05:40:22;14.30;;;7.00;;
20669;SDS011;10494;50.868;4.180;2024-03-06T05:42:47;12.90;;;6.87;;
20669;SDS011;10494;50.868;4.180;2024-03-06T05:45:13;12.00;;;6.97;;
20669;SDS011;10494;50.868;4.180;2024-03-06T05:47:38;12.40;;;6.57;;
20669;SDS011;10494;50.868;4.180;2024-03-06T05:50:07;16.70;;;7.30;;
20669;SDS011;10494;50.868;4.180;2024-03-06T05:52:35;12.93;;;6.73;;
20669;SDS011;10494;50.868;4.180;2024-03-06T05:55:01;15.90;;;8.03;;
20669;SDS011;10494;50.868;4.180;2024-03-06T05:57:27;11.07;;;7.40;;
20669;SDS011;10494;50.868;4.180;2024-03-06T05:59:52;12.47;;;7.23;;
20669;SDS011;10494;50.868;4.180;2024-03-06T06:02:18;11.57;;;7.10;;
20669;SDS011;10494;50.868;4.180;2024-03-06T06:04:45;14.23;;;7.07;;
20669;SDS011;10494;50.868;4.180;2024-03-06T06:07:11;13.00;;;7.03;;
20669;SDS011;10494;50.868;4.180;2024-03-06T06:09:36;14.37;;;7.20;;
20669;SDS011;10494;50.868;4.180;2024-03-06T06:12:02;16.03;;;7.40;;
20669;SDS011;10494;50.868;4.180;2024-03-06T06:14:28;14.23;;;7.77;;
20669;SDS011;10494;50.868;4.180;2024-03-06T06:16:54;15.77;;;7.17;;
20669;SDS011;10494;50.868;4.180;2024-03-06T06:19:21;11.57;;;6.60;;
20669;SDS011;10494;50.868;4.180;2024-03-06T06:21:47;11.77;;;7.27;;
20669;SDS011;10494;50.868;4.180;2024-03-06T06:24:12;16.50;;;8.30;;
20669;SDS011;10494;50.868;4.180;2024-03-06T06:26:38;11.67;;;6.80;;
20669;SDS011;10494;50.868;4.180;2024-03-06T06:29:04;12.43;;;6.73;;
20669;SDS011;10494;50.868;4.180;2024-03-06T06:31:30;13.87;;;7.13;;
20669;SDS011;10494;50.868;4.180;2024-03-06T06:33:56;16.13;;;6.97;;
20669;SDS011;10494;50.868;4.180;2024-03-06T06:36:22;11.23;;;6.40;;
20669;SDS011;10494;50.868;4.180;2024-03-06T06:38:48;11.77;;;6.50;;
20669;SDS011;10494;50.868;4.180;2024-03-06T06:41:14;15.00;;;7.80;;
20669;SDS011;10494;50.868;4.180;2024-03-06T06:43:40;12.53;;;7.63;;
20669;SDS011;10494;50.868;4.180;2024-03-06T06:46:06;12.73;;;6.93;;
20669;SDS011;10494;50.868;4.180;2024-03-06T06:48:32;12.47;;;6.70;;
20669;SDS011;10494;50.868;4.180;2024-03-06T06:50:59;26.87;;;8.50;;
20669;SDS011;10494;50.868;4.180;2024-03-06T06:53:27;12.37;;;7.00;;
20669;SDS011;10494;50.868;4.180;2024-03-06T06:55:53;11.53;;;6.67;;
20669;SDS011;10494;50.868;4.180;2024-03-06T06:58:18;13.87;;;7.23;;
20669;SDS011;10494;50.868;4.180;2024-03-06T07:00:45;15.20;;;7.97;;
20669;SDS011;10494;50.868;4.180;2024-03-06T07:03:10;11.77;;;6.70;;
20669;SDS011;10494;50.868;4.180;2024-03-06T07:05:36;16.53;;;7.43;;
20669;SDS011;10494;50.868;4.180;2024-03-06T07:08:02;10.47;;;7.23;;
20669;SDS011;10494;50.868;4.180;2024-03-06T07:10:27;15.23;;;8.33;;
20669;SDS011;10494;50.868;4.180;2024-03-06T07:12:53;13.17;;;7.73;;
20669;SDS011;10494;50.868;4.180;2024-03-06T07:15:19;10.57;;;6.77;;
20669;SDS011;10494;50.868;4.180;2024-03-06T07:17:44;14.43;;;7.53;;
20669;SDS011;10494;50.868;4.180;2024-03-06T07:20:10;9.67;;;6.53;;
20669;SDS011;10494;50.868;4.180;2024-03-06T07:22:36;10.57;;;6.60;;
20669;SDS011;10494;50.868;4.180;2024-03-06T07:25:02;15.43;;;7.33;;
20669;SDS011;10494;50.868;4.180;2024-03-06T07:27:30;15.53;;;9.13;;
20669;SDS011;10494;50.868;4.180;2024-03-06T07:29:56;20.63;;;10.37;;
20669;SDS011;10494;50.868;4.180;2024-03-06T07:32:21;26.60;;;13.67;;
20669;SDS011;10494;50.868;4.180;2024-03-06T07:34:47;23.80;;;13.33;;
20669;SDS011;10494;50.868;4.180;2024-03-06T07:37:12;30.03;;;11.70;;
20669;SDS011;10494;50.868;4.180;2024-03-06T07:39:39;22.20;;;13.47;;
20669;SDS011;10494;50.868;4.180;2024-03-06T07:42:05;17.40;;;9.63;;
20669;SDS011;10494;50.868;4.180;2024-03-06T07:44:31;13.80;;;8.67;;
20669;SDS011;10494;50.868;4.180;2024-03-06T07:46:56;13.55;;;7.72;;
20669;SDS011;10494;50.868;4.180;2024-03-06T07:49:22;12.85;;;7.35;;
20669;SDS011;10494;50.868;4.180;2024-03-06T07:51:48;10.85;;;7.05;;
20669;SDS011;10494;50.868;4.180;2024-03-06T07:54:13;12.50;;;5.45;;
20669;SDS011;10494;50.868;4.180;2024-03-06T07:56:39;10.02;;;6.28;;
20669;SDS011;10494;50.868;4.180;2024-03-06T07:59:05;8.20;;;5.45;;
20669;SDS011;10494;50.868;4.180;2024-03-06T08:01:30;9.85;;;5.88;;
20669;SDS011;10494;50.868;4.180;2024-03-06T08:03:57;9.75;;;5.72;;
20669;SDS011;10494;50.868;4.180;2024-03-06T08:06:23;11.68;;;5.68;;
20669;SDS011;10494;50.868;4.180;2024-03-06T08:08:50;7.60;;;5.60;;
20669;SDS011;10494;50.868;4.180;2024-03-06T08:11:17;7.82;;;5.15;;
20669;SDS011;10494;50.868;4.180;2024-03-06T08:13:43;8.32;;;5.90;;
20669;SDS011;10494;50.868;4.180;2024-03-06T08:16:09;8.68;;;5.40;;
20669;SDS011;10494;50.868;4.180;2024-03-06T08:18:34;9.70;;;5.47;;
20669;SDS011;10494;50.868;4.180;2024-03-06T08:21:01;7.25;;;5.32;;
20669;SDS011;10494;50.868;4.180;2024-03-06T08:23:29;6.75;;;5.07;;
20669;SDS011;10494;50.868;4.180;2024-03-06T08:25:55;5.75;;;4.40;;
20669;SDS011;10494;50.868;4.180;2024-03-06T08:28:21;6.07;;;4.45;;
20669;SDS011;10494;50.868;4.180;2024-03-06T08:30:46;6.93;;;4.90;;
20669;SDS011;10494;50.868;4.180;2024-03-06T08:33:13;6.57;;;4.15;;
20669;SDS011;10494;50.868;4.180;2024-03-06T08:35:39;7.97;;;4.13;;
20669;SDS011;10494;50.868;4.180;2024-03-06T08:38:04;10.63;;;3.97;;
20669;SDS011;10494;50.868;4.180;2024-03-06T08:40:31;7.93;;;4.75;;
20669;SDS011;10494;50.868;4.180;2024-03-06T08:42:57;6.03;;;3.80;;
20669;SDS011;10494;50.868;4.180;2024-03-06T08:45:23;5.38;;;4.18;;
20669;SDS011;10494;50.868;4.180;2024-03-06T08:47:49;6.03;;;4.07;;
20669;SDS011;10494;50.868;4.180;2024-03-06T08:50:15;5.68;;;4.15;;
20669;SDS011;10494;50.868;4.180;2024-03-06T08:52:41;6.10;;;4.47;;
20669;SDS011;10494;50.868;4.180;2024-03-06T08:55:07;7.05;;;5.00;;
20669;SDS011;10494;50.868;4.180;2024-03-06T08:57:34;6.55;;;4.38;;
20669;SDS011;10494;50.868;4.180;2024-03-06T09:00:00;7.28;;;4.53;;
20669;SDS011;10494;50.868;4.180;2024-03-06T09:02:27;6.97;;;4.30;;
20669;SDS011;10494;50.868;4.180;2024-03-06T09:04:52;7.03;;;4.22;;
20669;SDS011;10494;50.868;4.180;2024-03-06T09:07:18;10.15;;;4.43;;
20669;SDS011;10494;50.868;4.180;2024-03-06T09:09:45;6.45;;;4.57;;
20669;SDS011;10494;50.868;4.180;2024-03-06T09:12:11;7.93;;;4.22;;
20669;SDS011;10494;50.868;4.180;2024-03-06T09:14:37;8.25;;;4.38;;
20669;SDS011;10494;50.868;4.180;2024-03-06T09:17:03;7.38;;;4.65;;
20669;SDS011;10494;50.868;4.180;2024-03-06T09:19:30;8.65;;;4.78;;
20669;SDS011;10494;50.868;4.180;2024-03-06T09:21:57;6.55;;;4.47;;
20669;SDS011;10494;50.868;4.180;2024-03-06T09:24:24;7.05;;;5.18;;
20669;SDS011;10494;50.868;4.180;2024-03-06T09:26:53;9.57;;;4.75;;
20669;SDS011;10494;50.868;4.180;2024-03-06T09:29:19;6.80;;;4.80;;
20669;SDS011;10494;50.868;4.180;2024-03-06T09:31:45;8.65;;;4.85;;
20669;SDS011;10494;50.868;4.180;2024-03-06T09:34:12;8.65;;;4.63;;
20669;SDS011;10494;50.868;4.180;2024-03-06T09:36:41;5.80;;;4.38;;
20669;SDS011;10494;50.868;4.180;2024-03-06T09:39:11;8.48;;;4.85;;
20669;SDS011;10494;50.868;4.180;2024-03-06T09:41:37;9.18;;;4.65;;
20669;SDS011;10494;50.868;4.180;2024-03-06T09:44:06;7.75;;;4.72;;
20669;SDS011;10494;50.868;4.180;2024-03-06T09:46:35;6.65;;;4.57;;
20669;SDS011;10494;50.868;4.180;2024-03-06T09:49:01;8.18;;;4.90;;
20669;SDS011;10494;50.868;4.180;2024-03-06T09:51:27;5.85;;;4.40;;
20669;SDS011;10494;50.868;4.180;2024-03-06T09:53:53;7.60;;;4.68;;
20669;SDS011;10494;50.868;4.180;2024-03-06T09:56:19;6.13;;;4.43;;
20669;SDS011;10494;50.868;4.180;2024-03-06T09:58:45;9.25;;;4.88;;
20669;SDS011;10494;50.868;4.180;2024-03-06T10:01:11;6.50;;;4.63;;
20669;SDS011;10494;50.868;4.180;2024-03-06T10:03:38;6.43;;;5.22;;
20669;SDS011;10494;50.868;4.180;2024-03-06T10:06:05;10.68;;;5.85;;
20669;SDS011;10494;50.868;4.180;2024-03-06T10:08:32;6.60;;;4.63;;
20669;SDS011;10494;50.868;4.180;2024-03-06T10:10:58;8.80;;;4.95;;
20669;SDS011;10494;50.868;4.180;2024-03-06T10:13:24;9.02;;;5.45;;
20669;SDS011;10494;50.868;4.180;2024-03-06T10:16:03;7.15;;;4.90;;
20669;SDS011;10494;50.868;4.180;2024-03-06T10:18:33;5.90;;;4.45;;
20669;SDS011;10494;50.868;4.180;2024-03-06T10:20:59;9.02;;;4.93;;
20669;SDS011;10494;50.868;4.180;2024-03-06T10:23:26;6.38;;;4.57;;
20669;SDS011;10494;50.868;4.180;2024-03-06T10:25:54;9.35;;;5.05;;
20669;SDS011;10494;50.868;4.180;2024-03-06T10:28:20;7.25;;;4.50;;
20669;SDS011;10494;50.868;4.180;2024-03-06T10:30:50;6.63;;;4.80;;
20669;SDS011;10494;50.868;4.180;2024-03-06T10:33:17;5.07;;;4.03;;
20669;SDS011;10494;50.868;4.180;2024-03-06T10:35:47;8.20;;;4.32;;
20669;SDS011;10494;50.868;4.180;2024-03-06T10:38:13;6.88;;;4.88;;
20669;SDS011;10494;50.868;4.180;2024-03-06T10:40:40;6.57;;;4.32;;
20669;SDS011;10494;50.868;4.180;2024-03-06T10:43:07;6.07;;;4.43;;
20669;SDS011;10494;50.868;4.180;2024-03-06T10:45:49;5.68;;;3.30;;
20669;SDS011;10494;50.868;4.180;2024-03-06T10:48:19;8.55;;;4.50;;
20669;SDS011;10494;50.868;4.180;2024-03-06T10:50:45;4.55;;;3.50;;
20669;SDS011;10494;50.868;4.180;2024-03-06T10:53:13;5.57;;;3.55;;
20669;SDS011;10494;50.868;4.180;2024-03-06T10:55:40;5.85;;;3.53;;
20669;SDS011;10494;50.868;4.180;2024-03-06T10:58:11;7.32;;;3.42;;
20669;SDS011;10494;50.868;4.180;2024-03-06T11:03:05;4.25;;;2.90;;
20669;SDS011;10494;50.868;4.180;2024-03-06T11:05:36;4.25;;;3.05;;
20669;SDS011;10494;50.868;4.180;2024-03-06T11:08:14;5.97;;;3.13;;
20669;SDS011;10494;50.868;4.180;2024-03-06T11:10:42;4.57;;;3.42;;
20669;SDS011;10494;50.868;4.180;2024-03-06T11:13:09;5.22;;;3.15;;
20669;SDS011;10494;50.868;4.180;2024-03-06T11:15:56;6.35;;;3.70;;
20669;SDS011;10494;50.868;4.180;2024-03-06T11:23:38;5.75;;;4.00;;
20669;SDS011;10494;50.868;4.180;2024-03-06T11:26:56;5.22;;;3.47;;
20669;SDS011;10494;50.868;4.180;2024-03-06T11:29:29;7.55;;;3.40;;
20669;SDS011;10494;50.868;4.180;2024-03-06T11:32:16;6.25;;;3.55;;
20669;SDS011;10494;50.868;4.180;2024-03-06T11:34:42;5.28;;;4.00;;
20669;SDS011;10494;50.868;4.180;2024-03-06T11:37:08;5.70;;;3.28;;
20669;SDS011;10494;50.868;4.180;2024-03-06T11:39:37;8.20;;;3.47;;
20669;SDS011;10494;50.868;4.180;2024-03-06T11:42:04;4.45;;;3.00;;
20669;SDS011;10494;50.868;4.180;2024-03-06T11:44:33;5.72;;;3.20;;
20669;SDS011;10494;50.868;4.180;2024-03-06T11:47:08;4.93;;;3.38;;
20669;SDS011;10494;50.868;4.180;2024-03-06T11:49:34;6.15;;;3.10;;
20669;SDS011;10494;50.868;4.180;2024-03-06T11:52:02;5.38;;;3.80;;
20669;SDS011;10494;50.868;4.180;2024-03-06T11:54:33;6.65;;;3.80;;
20669;SDS011;10494;50.868;4.180;2024-03-06T11:56:59;8.05;;;4.38;;
20669;SDS011;10494;50.868;4.180;2024-03-06T11:59:27;5.88;;;4.15;;
20669;SDS011;10494;50.868;4.180;2024-03-06T12:02:01;7.28;;;3.45;;
20669;SDS011;10494;50.868;4.180;2024-03-06T12:04:29;6.80;;;3.65;;
20669;SDS011;10494;50.868;4.180;2024-03-06T12:06:56;9.23;;;4.22;;
20669;SDS011;10494;50.868;4.180;2024-03-06T12:09:30;6.82;;;3.88;;
20669;SDS011;10494;50.868;4.180;2024-03-06T12:11:57;5.97;;;3.65;;
20669;SDS011;10494;50.868;4.180;2024-03-06T12:14:23;6.57;;;3.58;;
20669;SDS011;10494;50.868;4.180;2024-03-06T12:16:56;5.15;;;3.60;;
20669;SDS011;10494;50.868;4.180;2024-03-06T12:19:23;5.65;;;3.50;;
20669;SDS011;10494;50.868;4.180;2024-03-06T12:21:51;6.03;;;3.80;;
20669;SDS011;10494;50.868;4.180;2024-03-06T12:24:18;9.23;;;4.20;;
20669;SDS011;10494;50.868;4.180;2024-03-06T12:26:44;7.00;;;3.47;;
20669;SDS011;10494;50.868;4.180;2024-03-06T12:29:16;6.78;;;3.95;;
20669;SDS011;10494;50.868;4.180;2024-03-06T12:31:44;7.95;;;3.75;;
20669;SDS011;10494;50.868;4.180;2024-03-06T12:34:13;8.15;;;3.58;;
20669;SDS011;10494;50.868;4.180;2024-03-06T12:36:40;7.50;;;3.75;;
20669;SDS011;10494;50.868;4.180;2024-03-06T12:39:06;8.27;;;4.22;;
20669;SDS011;10494;50.868;4.180;2024-03-06T12:41:38;6.05;;;3.53;;
20669;SDS011;10494;50.868;4.180;2024-03-06T12:44:04;7.47;;;3.40;;
20669;SDS011;10494;50.868;4.180;2024-03-06T12:46:31;7.40;;;3.70;;
20669;SDS011;10494;50.868;4.180;2024-03-06T12:48:57;6.18;;;3.17;;
20669;SDS011;10494;50.868;4.180;2024-03-06T12:51:23;7.85;;;3.25;;
20669;SDS011;10494;50.868;4.180;2024-03-06T12:53:48;5.88;;;3.28;;
20669;SDS011;10494;50.868;4.180;2024-03-06T12:56:14;7.18;;;2.70;;
20669;SDS011;10494;50.868;4.180;2024-03-06T12:58:40;7.97;;;3.42;;
20669;SDS011;10494;50.868;4.180;2024-03-06T13:01:05;8.07;;;4.68;;
20669;SDS011;10494;50.868;4.180;2024-03-06T13:03:31;7.97;;;3.55;;
20669;SDS011;10494;50.868;4.180;2024-03-06T13:05:57;7.07;;;3.97;;
20669;SDS011;10494;50.868;4.180;2024-03-06T13:08:23;8.80;;;3.05;;
20669;SDS011;10494;50.868;4.180;2024-03-06T13:10:48;4.22;;;2.63;;
20669;SDS011;10494;50.868;4.180;2024-03-06T13:13:14;6.75;;;2.50;;
20669;SDS011;10494;50.868;4.180;2024-03-06T13:15:40;6.80;;;3.38;;
20669;SDS011;10494;50.868;4.180;2024-03-06T13:18:05;6.88;;;3.47;;
20669;SDS011;10494;50.868;4.180;2024-03-06T13:20:32;7.00;;;3.03;;
20669;SDS011;10494;50.868;4.180;2024-03-06T13:22:58;7.20;;;3.35;;
20669;SDS011;10494;50.868;4.180;2024-03-06T13:25:24;9.40;;;3.15;;
20669;SDS011;10494;50.868;4.180;2024-03-06T13:27:50;6.28;;;3.00;;
20669;SDS011;10494;50.868;4.180;2024-03-06T13:30:19;6.32;;;2.85;;
20669;SDS011;10494;50.868;4.180;2024-03-06T13:32:45;4.68;;;2.75;;
20669;SDS011;10494;50.868;4.180;2024-03-06T13:35:11;5.88;;;3.25;;
20669;SDS011;10494;50.868;4.180;2024-03-06T13:37:41;12.05;;;2.85;;
20669;SDS011;10494;50.868;4.180;2024-03-06T13:40:07;4.80;;;2.42;;
20669;SDS011;10494;50.868;4.180;2024-03-06T13:42:35;5.03;;;2.65;;
20669;SDS011;10494;50.868;4.180;2024-03-06T13:45:01;5.40;;;2.65;;
20669;SDS011;10494;50.868;4.180;2024-03-06T13:47:36;6.75;;;2.95;;
20669;SDS011;10494;50.868;4.180;2024-03-06T13:50:04;6.47;;;3.13;;
20669;SDS011;10494;50.868;4.180;2024-03-06T13:52:33;7.25;;;3.47;;
20669;SDS011;10494;50.868;4.180;2024-03-06T13:54:59;6.70;;;3.40;;
20669;SDS011;10494;50.868;4.180;2024-03-06T13:57:27;6.50;;;3.35;;
20669;SDS011;10494;50.868;4.180;2024-03-06T13:59:53;5.97;;;3.40;;
20669;SDS011;10494;50.868;4.180;2024-03-06T14:02:19;5.90;;;3.33;;
20669;SDS011;10494;50.868;4.180;2024-03-06T14:04:46;6.07;;;2.90;;
20669;SDS011;10494;50.868;4.180;2024-03-06T14:07:11;5.43;;;3.00;;
20669;SDS011;10494;50.868;4.180;2024-03-06T14:09:37;5.82;;;2.58;;
20669;SDS011;10494;50.868;4.180;2024-03-06T14:12:03;7.03;;;2.72;;
20669;SDS011;10494;50.868;4.180;2024-03-06T14:14:29;6.10;;;2.90;;
20669;SDS011;10494;50.868;4.180;2024-03-06T14:16:54;6.25;;;3.22;;
20669;SDS011;10494;50.868;4.180;2024-03-06T14:19:20;7.60;;;2.53;;
20669;SDS011;10494;50.868;4.180;2024-03-06T14:21:47;6.43;;;2.97;;
20669;SDS011;10494;50.868;4.180;2024-03-06T14:24:12;5.38;;;2.58;;
20669;SDS011;10494;50.868;4.180;2024-03-06T14:26:38;8.38;;;3.10;;
20669;SDS011;10494;50.868;4.180;2024-03-06T14:29:05;7.03;;;2.78;;
20669;SDS011;10494;50.868;4.180;2024-03-06T14:31:32;6.05;;;2.50;;
20669;SDS011;10494;50.868;4.180;2024-03-06T14:33:58;5.72;;;2.70;;
20669;SDS011;10494;50.868;4.180;2024-03-06T14:36:23;4.00;;;2.65;;
20669;SDS011;10494;50.868;4.180;2024-03-06T14:38:50;8.23;;;2.75;;
20669;SDS011;10494;50.868;4.180;2024-03-06T14:41:17;7.38;;;2.90;;
20669;SDS011;10494;50.868;4.180;2024-03-06T14:43:44;6.53;;;2.72;;
20669;SDS011;10494;50.868;4.180;2024-03-06T14:46:10;5.00;;;2.67;;
20669;SDS011;10494;50.868;4.180;2024-03-06T14:48:37;7.55;;;2.58;;